SPCL/PCL METAR and TAF weather

Enter ICAO airport designator
Station Type Date Time Source
SPCL METAR 2021/09/20 04:00 UTC NOAA

SPCL 200400Z 00000KT 9999 SCT015 SCT080 25/24 Q1011 RMK PP000


Station Type Date Time Source
SPCL Decoded METAR 2021/09/20 04:00 UTC NOAA

Pucallpa, Peru (SPCL) 08-25S 074-36W 149M
Sep 20, 2021 - 12:00 AM EDT / 2021.09.20 0400 UTC
Wind: Calm:0
Visibility: greater than 7 mile(s):0
Sky conditions: partly cloudy
Temperature: 77 F (25 C)
Dew Point: 75 F (24 C)
Relative Humidity: 94%
Pressure (altimeter): 29.85 in. Hg (1011 hPa)
ob: SPCL 200400Z 00000KT 9999 SCT015 SCT080 25/24 Q1011 RMK PP000
cycle: 4

Station Type Date Time Source
SPCL TAF 2021/09/19 18:33 UTC NOAA

TAF TAF SPCL 191700Z 1918/2018 35005KT 9999 SCT020 TX33/1920Z TN22/2011Z
TEMPO 2012/2015 2000 BCFG BKN008 BKN080

Example: see airport list